sensor_id;sensor_type;location;lat;lon;timestamp;P1;durP1;ratioP1;P2;durP2;ratioP2
82415;SDS011;72058;47.782;10.618;2024-01-25T00:01:55;2.93;;;2.63;;
82415;SDS011;72058;47.782;10.618;2024-01-25T00:04:21;4.03;;;2.57;;
82415;SDS011;72058;47.782;10.618;2024-01-25T00:06:46;4.30;;;2.70;;
82415;SDS011;72058;47.782;10.618;2024-01-25T00:09:11;9.48;;;2.88;;
82415;SDS011;72058;47.782;10.618;2024-01-25T00:11:37;4.43;;;2.42;;
82415;SDS011;72058;47.782;10.618;2024-01-25T00:14:03;10.15;;;2.50;;
82415;SDS011;72058;47.782;10.618;2024-01-25T00:16:28;4.45;;;2.60;;
82415;SDS011;72058;47.782;10.618;2024-01-25T00:18:54;8.10;;;2.78;;
82415;SDS011;72058;47.782;10.618;2024-01-25T00:21:19;4.93;;;3.47;;
82415;SDS011;72058;47.782;10.618;2024-01-25T00:23:45;7.18;;;3.33;;
82415;SDS011;72058;47.782;10.618;2024-01-25T00:26:10;6.22;;;2.60;;
82415;SDS011;72058;47.782;10.618;2024-01-25T00:28:36;3.07;;;2.20;;
82415;SDS011;72058;47.782;10.618;2024-01-25T00:31:01;7.82;;;3.25;;
82415;SDS011;72058;47.782;10.618;2024-01-25T00:33:27;5.07;;;2.88;;
82415;SDS011;72058;47.782;10.618;2024-01-25T00:35:52;5.30;;;3.33;;
82415;SDS011;72058;47.782;10.618;2024-01-25T00:38:18;3.47;;;2.85;;
82415;SDS011;72058;47.782;10.618;2024-01-25T00:40:43;4.63;;;2.80;;
82415;SDS011;72058;47.782;10.618;2024-01-25T00:43:09;8.50;;;2.95;;
82415;SDS011;72058;47.782;10.618;2024-01-25T00:45:35;4.75;;;3.10;;
82415;SDS011;72058;47.782;10.618;2024-01-25T00:48:01;4.70;;;2.58;;
82415;SDS011;72058;47.782;10.618;2024-01-25T00:50:26;5.43;;;2.60;;
82415;SDS011;72058;47.782;10.618;2024-01-25T00:52:52;6.03;;;3.30;;
82415;SDS011;72058;47.782;10.618;2024-01-25T00:55:17;5.07;;;2.78;;
82415;SDS011;72058;47.782;10.618;2024-01-25T00:57:43;5.13;;;2.58;;
82415;SDS011;72058;47.782;10.618;2024-01-25T01:00:09;4.80;;;2.75;;
82415;SDS011;72058;47.782;10.618;2024-01-25T01:02:35;6.00;;;2.72;;
82415;SDS011;72058;47.782;10.618;2024-01-25T01:05:05;6.28;;;2.75;;
82415;SDS011;72058;47.782;10.618;2024-01-25T01:07:31;5.20;;;3.35;;
82415;SDS011;72058;47.782;10.618;2024-01-25T01:09:57;4.00;;;2.85;;
82415;SDS011;72058;47.782;10.618;2024-01-25T01:12:22;3.90;;;2.73;;
82415;SDS011;72058;47.782;10.618;2024-01-25T01:14:47;5.43;;;2.67;;
82415;SDS011;72058;47.782;10.618;2024-01-25T01:17:13;4.43;;;2.50;;
82415;SDS011;72058;47.782;10.618;2024-01-25T01:19:39;4.82;;;2.35;;
82415;SDS011;72058;47.782;10.618;2024-01-25T01:22:04;2.67;;;2.00;;
82415;SDS011;72058;47.782;10.618;2024-01-25T01:24:29;6.47;;;2.17;;
82415;SDS011;72058;47.782;10.618;2024-01-25T01:26:55;5.97;;;2.63;;
82415;SDS011;72058;47.782;10.618;2024-01-25T01:29:20;4.13;;;2.73;;
82415;SDS011;72058;47.782;10.618;2024-01-25T01:31:45;3.23;;;2.97;;
82415;SDS011;72058;47.782;10.618;2024-01-25T01:34:11;4.53;;;2.50;;
82415;SDS011;72058;47.782;10.618;2024-01-25T01:39:03;3.03;;;1.95;;
82415;SDS011;72058;47.782;10.618;2024-01-25T01:41:28;3.45;;;2.30;;
82415;SDS011;72058;47.782;10.618;2024-01-25T01:43:54;3.28;;;2.88;;
82415;SDS011;72058;47.782;10.618;2024-01-25T01:48:59;3.15;;;2.53;;
82415;SDS011;72058;47.782;10.618;2024-01-25T01:51:24;3.47;;;2.95;;
82415;SDS011;72058;47.782;10.618;2024-01-25T01:53:49;4.70;;;2.58;;
82415;SDS011;72058;47.782;10.618;2024-01-25T01:56:15;3.25;;;2.65;;
82415;SDS011;72058;47.782;10.618;2024-01-25T01:58:41;4.47;;;2.63;;
82415;SDS011;72058;47.782;10.618;2024-01-25T02:01:07;4.28;;;2.95;;
82415;SDS011;72058;47.782;10.618;2024-01-25T02:03:32;4.13;;;2.63;;
82415;SDS011;72058;47.782;10.618;2024-01-25T02:05:57;3.70;;;2.70;;
82415;SDS011;72058;47.782;10.618;2024-01-25T02:08:30;5.07;;;2.38;;
82415;SDS011;72058;47.782;10.618;2024-01-25T02:10:56;3.67;;;2.53;;
82415;SDS011;72058;47.782;10.618;2024-01-25T02:13:21;3.58;;;2.40;;
82415;SDS011;72058;47.782;10.618;2024-01-25T02:15:47;2.20;;;1.67;;
82415;SDS011;72058;47.782;10.618;2024-01-25T02:18:12;2.95;;;1.90;;
82415;SDS011;72058;47.782;10.618;2024-01-25T02:20:38;3.53;;;2.25;;
82415;SDS011;72058;47.782;10.618;2024-01-25T02:23:03;2.43;;;2.23;;
82415;SDS011;72058;47.782;10.618;2024-01-25T02:25:29;2.75;;;2.55;;
82415;SDS011;72058;47.782;10.618;2024-01-25T02:27:54;3.13;;;2.23;;
82415;SDS011;72058;47.782;10.618;2024-01-25T02:30:19;2.20;;;2.00;;
82415;SDS011;72058;47.782;10.618;2024-01-25T02:32:45;6.63;;;2.53;;
82415;SDS011;72058;47.782;10.618;2024-01-25T02:35:10;3.20;;;2.43;;
82415;SDS011;72058;47.782;10.618;2024-01-25T02:37:35;8.63;;;2.97;;
82415;SDS011;72058;47.782;10.618;2024-01-25T02:40:01;4.10;;;3.03;;
82415;SDS011;72058;47.782;10.618;2024-01-25T02:42:26;6.97;;;2.65;;
82415;SDS011;72058;47.782;10.618;2024-01-25T02:44:51;3.97;;;2.53;;
82415;SDS011;72058;47.782;10.618;2024-01-25T02:47:17;5.22;;;4.63;;
82415;SDS011;72058;47.782;10.618;2024-01-25T02:49:42;5.13;;;3.42;;
82415;SDS011;72058;47.782;10.618;2024-01-25T02:52:08;7.55;;;3.88;;
82415;SDS011;72058;47.782;10.618;2024-01-25T02:54:36;6.03;;;2.90;;
82415;SDS011;72058;47.782;10.618;2024-01-25T02:57:02;4.20;;;2.90;;
82415;SDS011;72058;47.782;10.618;2024-01-25T02:59:27;3.83;;;2.88;;
82415;SDS011;72058;47.782;10.618;2024-01-25T03:01:53;3.87;;;2.80;;
82415;SDS011;72058;47.782;10.618;2024-01-25T03:04:19;4.80;;;3.38;;
82415;SDS011;72058;47.782;10.618;2024-01-25T03:06:45;5.20;;;2.85;;
82415;SDS011;72058;47.782;10.618;2024-01-25T03:09:10;4.57;;;2.77;;
82415;SDS011;72058;47.782;10.618;2024-01-25T03:11:35;5.18;;;3.10;;
82415;SDS011;72058;47.782;10.618;2024-01-25T03:14:01;6.13;;;3.90;;
82415;SDS011;72058;47.782;10.618;2024-01-25T03:16:26;3.90;;;2.95;;
82415;SDS011;72058;47.782;10.618;2024-01-25T03:18:51;3.37;;;2.87;;
82415;SDS011;72058;47.782;10.618;2024-01-25T03:21:17;4.53;;;2.83;;
82415;SDS011;72058;47.782;10.618;2024-01-25T03:23:42;5.07;;;3.40;;
82415;SDS011;72058;47.782;10.618;2024-01-25T03:26:07;5.07;;;2.60;;
82415;SDS011;72058;47.782;10.618;2024-01-25T03:28:34;4.70;;;3.13;;
82415;SDS011;72058;47.782;10.618;2024-01-25T03:31:00;3.90;;;2.72;;
82415;SDS011;72058;47.782;10.618;2024-01-25T03:33:26;6.78;;;2.28;;
82415;SDS011;72058;47.782;10.618;2024-01-25T03:35:53;3.30;;;2.97;;
82415;SDS011;72058;47.782;10.618;2024-01-25T03:38:18;3.00;;;2.75;;
82415;SDS011;72058;47.782;10.618;2024-01-25T03:40:44;4.05;;;2.55;;
82415;SDS011;72058;47.782;10.618;2024-01-25T03:43:09;4.47;;;2.53;;
82415;SDS011;72058;47.782;10.618;2024-01-25T03:45:34;4.50;;;3.17;;
82415;SDS011;72058;47.782;10.618;2024-01-25T03:48:00;5.50;;;2.70;;
82415;SDS011;72058;47.782;10.618;2024-01-25T03:50:26;3.22;;;2.53;;
82415;SDS011;72058;47.782;10.618;2024-01-25T03:55:17;5.67;;;2.50;;
82415;SDS011;72058;47.782;10.618;2024-01-25T03:57:42;3.43;;;2.93;;
82415;SDS011;72058;47.782;10.618;2024-01-25T04:02:36;3.67;;;2.72;;
82415;SDS011;72058;47.782;10.618;2024-01-25T04:05:01;6.95;;;3.05;;
82415;SDS011;72058;47.782;10.618;2024-01-25T04:07:30;3.83;;;2.88;;
82415;SDS011;72058;47.782;10.618;2024-01-25T04:09:55;4.47;;;2.45;;
82415;SDS011;72058;47.782;10.618;2024-01-25T04:12:21;3.57;;;2.53;;
82415;SDS011;72058;47.782;10.618;2024-01-25T04:14:46;4.00;;;2.30;;
82415;SDS011;72058;47.782;10.618;2024-01-25T04:17:12;3.97;;;2.40;;
82415;SDS011;72058;47.782;10.618;2024-01-25T04:19:37;4.35;;;2.88;;
82415;SDS011;72058;47.782;10.618;2024-01-25T04:22:02;2.93;;;2.57;;
82415;SDS011;72058;47.782;10.618;2024-01-25T04:24:28;2.75;;;1.92;;
82415;SDS011;72058;47.782;10.618;2024-01-25T04:26:53;4.78;;;2.83;;
82415;SDS011;72058;47.782;10.618;2024-01-25T04:29:18;4.70;;;2.70;;
82415;SDS011;72058;47.782;10.618;2024-01-25T04:31:44;3.47;;;3.15;;
82415;SDS011;72058;47.782;10.618;2024-01-25T04:34:14;6.85;;;3.85;;
82415;SDS011;72058;47.782;10.618;2024-01-25T04:36:41;2.67;;;2.45;;
82415;SDS011;72058;47.782;10.618;2024-01-25T04:39:06;3.38;;;2.72;;
82415;SDS011;72058;47.782;10.618;2024-01-25T04:41:32;5.00;;;2.88;;
82415;SDS011;72058;47.782;10.618;2024-01-25T04:43:57;5.93;;;2.23;;
82415;SDS011;72058;47.782;10.618;2024-01-25T04:46:22;4.03;;;2.53;;
82415;SDS011;72058;47.782;10.618;2024-01-25T04:48:48;5.15;;;2.75;;
82415;SDS011;72058;47.782;10.618;2024-01-25T04:51:17;3.67;;;2.63;;
82415;SDS011;72058;47.782;10.618;2024-01-25T04:53:43;3.00;;;2.70;;
82415;SDS011;72058;47.782;10.618;2024-01-25T04:56:09;3.50;;;2.60;;
82415;SDS011;72058;47.782;10.618;2024-01-25T04:58:34;3.90;;;2.20;;
82415;SDS011;72058;47.782;10.618;2024-01-25T05:01:00;2.83;;;2.63;;
82415;SDS011;72058;47.782;10.618;2024-01-25T05:03:25;3.13;;;2.88;;
82415;SDS011;72058;47.782;10.618;2024-01-25T05:05:51;3.00;;;2.78;;
82415;SDS011;72058;47.782;10.618;2024-01-25T05:08:16;3.88;;;2.58;;
82415;SDS011;72058;47.782;10.618;2024-01-25T05:10:42;3.83;;;2.63;;
82415;SDS011;72058;47.782;10.618;2024-01-25T05:13:08;3.53;;;2.90;;
82415;SDS011;72058;47.782;10.618;2024-01-25T05:15:34;5.10;;;2.83;;
82415;SDS011;72058;47.782;10.618;2024-01-25T05:17:59;4.57;;;2.53;;
82415;SDS011;72058;47.782;10.618;2024-01-25T05:20:25;4.47;;;2.95;;
82415;SDS011;72058;47.782;10.618;2024-01-25T05:22:57;3.55;;;3.25;;
82415;SDS011;72058;47.782;10.618;2024-01-25T05:25:22;4.60;;;3.08;;
82415;SDS011;72058;47.782;10.618;2024-01-25T05:27:47;5.20;;;3.57;;
82415;SDS011;72058;47.782;10.618;2024-01-25T05:30:13;7.90;;;5.65;;
82415;SDS011;72058;47.782;10.618;2024-01-25T05:32:38;6.22;;;3.67;;
82415;SDS011;72058;47.782;10.618;2024-01-25T05:35:04;4.10;;;3.80;;
82415;SDS011;72058;47.782;10.618;2024-01-25T05:37:30;10.48;;;6.05;;
82415;SDS011;72058;47.782;10.618;2024-01-25T05:39:55;18.50;;;11.68;;
82415;SDS011;72058;47.782;10.618;2024-01-25T05:42:21;6.22;;;4.13;;
82415;SDS011;72058;47.782;10.618;2024-01-25T05:44:46;20.80;;;8.73;;
82415;SDS011;72058;47.782;10.618;2024-01-25T05:47:11;9.60;;;7.05;;
82415;SDS011;72058;47.782;10.618;2024-01-25T05:49:37;7.15;;;4.78;;
82415;SDS011;72058;47.782;10.618;2024-01-25T05:52:02;7.45;;;4.88;;
82415;SDS011;72058;47.782;10.618;2024-01-25T05:54:28;8.75;;;4.55;;
82415;SDS011;72058;47.782;10.618;2024-01-25T05:56:53;6.60;;;3.93;;
82415;SDS011;72058;47.782;10.618;2024-01-25T05:59:19;5.47;;;4.63;;
82415;SDS011;72058;47.782;10.618;2024-01-25T06:01:44;6.50;;;3.63;;
82415;SDS011;72058;47.782;10.618;2024-01-25T06:04:09;4.33;;;3.93;;
82415;SDS011;72058;47.782;10.618;2024-01-25T06:06:35;3.87;;;2.73;;
82415;SDS011;72058;47.782;10.618;2024-01-25T06:09:00;3.23;;;2.70;;
82415;SDS011;72058;47.782;10.618;2024-01-25T06:11:25;3.47;;;2.88;;
82415;SDS011;72058;47.782;10.618;2024-01-25T06:13:51;5.43;;;3.38;;
82415;SDS011;72058;47.782;10.618;2024-01-25T06:16:16;3.53;;;3.07;;
82415;SDS011;72058;47.782;10.618;2024-01-25T06:18:41;3.83;;;3.10;;
82415;SDS011;72058;47.782;10.618;2024-01-25T06:21:07;4.60;;;2.40;;
82415;SDS011;72058;47.782;10.618;2024-01-25T06:23:32;3.97;;;3.63;;
82415;SDS011;72058;47.782;10.618;2024-01-25T06:25:57;4.03;;;3.23;;
82415;SDS011;72058;47.782;10.618;2024-01-25T06:28:23;4.30;;;2.27;;
82415;SDS011;72058;47.782;10.618;2024-01-25T06:30:48;5.25;;;2.58;;
82415;SDS011;72058;47.782;10.618;2024-01-25T06:33:14;3.00;;;2.42;;
82415;SDS011;72058;47.782;10.618;2024-01-25T06:35:39;4.50;;;2.63;;
82415;SDS011;72058;47.782;10.618;2024-01-25T06:38:04;4.20;;;3.80;;
82415;SDS011;72058;47.782;10.618;2024-01-25T06:40:30;3.00;;;1.90;;
82415;SDS011;72058;47.782;10.618;2024-01-25T06:42:55;3.78;;;2.47;;
82415;SDS011;72058;47.782;10.618;2024-01-25T06:45:20;2.00;;;1.83;;
82415;SDS011;72058;47.782;10.618;2024-01-25T06:47:46;2.65;;;2.45;;
82415;SDS011;72058;47.782;10.618;2024-01-25T06:50:11;2.90;;;2.30;;
82415;SDS011;72058;47.782;10.618;2024-01-25T06:52:37;3.70;;;2.35;;
82415;SDS011;72058;47.782;10.618;2024-01-25T06:55:02;3.25;;;2.95;;
82415;SDS011;72058;47.782;10.618;2024-01-25T06:57:28;3.40;;;2.30;;
82415;SDS011;72058;47.782;10.618;2024-01-25T06:59:53;2.93;;;2.70;;
82415;SDS011;72058;47.782;10.618;2024-01-25T07:02:18;2.40;;;2.20;;
82415;SDS011;72058;47.782;10.618;2024-01-25T07:04:44;3.53;;;2.63;;
82415;SDS011;72058;47.782;10.618;2024-01-25T07:07:09;4.73;;;2.93;;
82415;SDS011;72058;47.782;10.618;2024-01-25T07:09:34;2.95;;;2.75;;
82415;SDS011;72058;47.782;10.618;2024-01-25T07:12:00;2.43;;;2.23;;
82415;SDS011;72058;47.782;10.618;2024-01-25T07:14:25;2.63;;;2.43;;
82415;SDS011;72058;47.782;10.618;2024-01-25T07:16:50;3.53;;;2.87;;
82415;SDS011;72058;47.782;10.618;2024-01-25T07:19:17;3.13;;;2.60;;
82415;SDS011;72058;47.782;10.618;2024-01-25T07:21:42;2.97;;;2.13;;
82415;SDS011;72058;47.782;10.618;2024-01-25T07:24:10;7.53;;;4.30;;
82415;SDS011;72058;47.782;10.618;2024-01-25T07:26:36;6.43;;;3.17;;
82415;SDS011;72058;47.782;10.618;2024-01-25T07:29:02;5.90;;;4.28;;
82415;SDS011;72058;47.782;10.618;2024-01-25T07:31:28;8.70;;;3.75;;
82415;SDS011;72058;47.782;10.618;2024-01-25T07:33:53;4.83;;;2.67;;
82415;SDS011;72058;47.782;10.618;2024-01-25T07:36:20;4.40;;;2.95;;
82415;SDS011;72058;47.782;10.618;2024-01-25T07:38:45;5.22;;;2.88;;
82415;SDS011;72058;47.782;10.618;2024-01-25T07:41:17;6.03;;;2.95;;
82415;SDS011;72058;47.782;10.618;2024-01-25T07:43:42;3.60;;;2.67;;
82415;SDS011;72058;47.782;10.618;2024-01-25T07:46:08;4.32;;;2.95;;
82415;SDS011;72058;47.782;10.618;2024-01-25T07:48:33;4.47;;;2.55;;
82415;SDS011;72058;47.782;10.618;2024-01-25T07:50:59;4.63;;;2.58;;
82415;SDS011;72058;47.782;10.618;2024-01-25T07:53:24;4.13;;;2.83;;
82415;SDS011;72058;47.782;10.618;2024-01-25T07:55:50;3.03;;;2.38;;
82415;SDS011;72058;47.782;10.618;2024-01-25T07:58:15;4.15;;;2.53;;
82415;SDS011;72058;47.782;10.618;2024-01-25T08:00:41;4.63;;;3.08;;
82415;SDS011;72058;47.782;10.618;2024-01-25T08:03:07;2.60;;;2.05;;
82415;SDS011;72058;47.782;10.618;2024-01-25T08:05:32;2.88;;;2.42;;
82415;SDS011;72058;47.782;10.618;2024-01-25T08:07:58;5.03;;;2.70;;
82415;SDS011;72058;47.782;10.618;2024-01-25T08:10:23;5.27;;;3.90;;
82415;SDS011;72058;47.782;10.618;2024-01-25T08:12:48;6.07;;;5.10;;
82415;SDS011;72058;47.782;10.618;2024-01-25T08:15:14;6.30;;;4.93;;
82415;SDS011;72058;47.782;10.618;2024-01-25T08:17:39;5.50;;;3.95;;
82415;SDS011;72058;47.782;10.618;2024-01-25T08:20:05;4.28;;;3.08;;
82415;SDS011;72058;47.782;10.618;2024-01-25T08:22:31;3.03;;;2.72;;
82415;SDS011;72058;47.782;10.618;2024-01-25T08:24:57;2.90;;;2.60;;
82415;SDS011;72058;47.782;10.618;2024-01-25T08:27:23;4.63;;;2.72;;
82415;SDS011;72058;47.782;10.618;2024-01-25T08:29:49;5.40;;;2.75;;
82415;SDS011;72058;47.782;10.618;2024-01-25T08:32:14;3.03;;;2.80;;
82415;SDS011;72058;47.782;10.618;2024-01-25T08:34:39;6.30;;;4.23;;
82415;SDS011;72058;47.782;10.618;2024-01-25T08:37:05;4.50;;;2.87;;
82415;SDS011;72058;47.782;10.618;2024-01-25T08:39:30;3.60;;;2.95;;
82415;SDS011;72058;47.782;10.618;2024-01-25T08:41:55;5.33;;;4.07;;
82415;SDS011;72058;47.782;10.618;2024-01-25T08:44:25;3.85;;;2.95;;
82415;SDS011;72058;47.782;10.618;2024-01-25T08:46:50;2.55;;;2.03;;
82415;SDS011;72058;47.782;10.618;2024-01-25T08:49:16;2.67;;;2.10;;
82415;SDS011;72058;47.782;10.618;2024-01-25T08:51:41;5.28;;;2.67;;
82415;SDS011;72058;47.782;10.618;2024-01-25T08:54:07;3.33;;;2.47;;
82415;SDS011;72058;47.782;10.618;2024-01-25T08:56:32;4.70;;;2.45;;
82415;SDS011;72058;47.782;10.618;2024-01-25T08:58:58;3.38;;;2.47;;
82415;SDS011;72058;47.782;10.618;2024-01-25T09:01:23;3.80;;;2.50;;
82415;SDS011;72058;47.782;10.618;2024-01-25T09:03:48;4.57;;;3.13;;
82415;SDS011;72058;47.782;10.618;2024-01-25T09:06:14;3.40;;;3.10;;
82415;SDS011;72058;47.782;10.618;2024-01-25T09:08:40;4.32;;;3.20;;
82415;SDS011;72058;47.782;10.618;2024-01-25T09:11:05;3.85;;;2.97;;
82415;SDS011;72058;47.782;10.618;2024-01-25T09:13:31;3.63;;;3.35;;
82415;SDS011;72058;47.782;10.618;2024-01-25T09:15:57;5.55;;;3.10;;
82415;SDS011;72058;47.782;10.618;2024-01-25T09:18:25;2.95;;;2.63;;
82415;SDS011;72058;47.782;10.618;2024-01-25T09:20:51;4.33;;;3.03;;
82415;SDS011;72058;47.782;10.618;2024-01-25T09:23:16;3.30;;;2.53;;
82415;SDS011;72058;47.782;10.618;2024-01-25T09:25:42;2.53;;;2.28;;
82415;SDS011;72058;47.782;10.618;2024-01-25T09:28:07;2.45;;;2.25;;
82415;SDS011;72058;47.782;10.618;2024-01-25T09:30:33;3.55;;;2.95;;
82415;SDS011;72058;47.782;10.618;2024-01-25T09:32:58;3.53;;;2.90;;
82415;SDS011;72058;47.782;10.618;2024-01-25T09:35:23;2.97;;;2.00;;
82415;SDS011;72058;47.782;10.618;2024-01-25T09:37:49;2.83;;;2.50;;
82415;SDS011;72058;47.782;10.618;2024-01-25T09:40:17;2.85;;;2.55;;
82415;SDS011;72058;47.782;10.618;2024-01-25T09:42:46;2.30;;;2.10;;
82415;SDS011;72058;47.782;10.618;2024-01-25T09:45:13;2.92;;;1.98;;
82415;SDS011;72058;47.782;10.618;2024-01-25T09:47:42;2.85;;;2.38;;
82415;SDS011;72058;47.782;10.618;2024-01-25T09:50:09;3.08;;;2.35;;
82415;SDS011;72058;47.782;10.618;2024-01-25T09:52:34;5.15;;;2.60;;
82415;SDS011;72058;47.782;10.618;2024-01-25T09:55:01;6.25;;;2.78;;
82415;SDS011;72058;47.782;10.618;2024-01-25T09:57:28;3.15;;;2.17;;
82415;SDS011;72058;47.782;10.618;2024-01-25T09:59:55;2.50;;;2.30;;
82415;SDS011;72058;47.782;10.618;2024-01-25T10:02:20;2.90;;;2.63;;
82415;SDS011;72058;47.782;10.618;2024-01-25T10:04:49;4.97;;;2.63;;
82415;SDS011;72058;47.782;10.618;2024-01-25T10:07:17;2.42;;;2.22;;
82415;SDS011;72058;47.782;10.618;2024-01-25T10:09:59;3.53;;;2.78;;
82415;SDS011;72058;47.782;10.618;2024-01-25T10:12:25;3.10;;;2.07;;
82415;SDS011;72058;47.782;10.618;2024-01-25T10:14:51;3.03;;;2.35;;
82415;SDS011;72058;47.782;10.618;2024-01-25T10:17:16;3.75;;;2.40;;
82415;SDS011;72058;47.782;10.618;2024-01-25T10:19:44;4.65;;;2.50;;
82415;SDS011;72058;47.782;10.618;2024-01-25T10:22:10;2.75;;;2.55;;
82415;SDS011;72058;47.782;10.618;2024-01-25T10:24:37;3.42;;;2.85;;
82415;SDS011;72058;47.782;10.618;2024-01-25T10:27:04;2.78;;;1.98;;
82415;SDS011;72058;47.782;10.618;2024-01-25T10:29:29;3.97;;;2.22;;
82415;SDS011;72058;47.782;10.618;2024-01-25T10:31:54;2.30;;;2.10;;
82415;SDS011;72058;47.782;10.618;2024-01-25T10:34:20;2.90;;;2.70;;
82415;SDS011;72058;47.782;10.618;2024-01-25T10:36:47;3.45;;;2.35;;
82415;SDS011;72058;47.782;10.618;2024-01-25T10:39:15;3.78;;;2.83;;
82415;SDS011;72058;47.782;10.618;2024-01-25T10:41:42;3.97;;;3.33;;
82415;SDS011;72058;47.782;10.618;2024-01-25T10:44:10;4.90;;;3.15;;
82415;SDS011;72058;47.782;10.618;2024-01-25T10:46:35;3.35;;;3.08;;
82415;SDS011;72058;47.782;10.618;2024-01-25T10:49:03;4.50;;;2.80;;
82415;SDS011;72058;47.782;10.618;2024-01-25T10:51:28;3.92;;;2.10;;
82415;SDS011;72058;47.782;10.618;2024-01-25T10:53:55;3.10;;;2.80;;
82415;SDS011;72058;47.782;10.618;2024-01-25T10:58:47;3.10;;;2.80;;
82415;SDS011;72058;47.782;10.618;2024-01-25T11:01:13;3.75;;;2.35;;
82415;SDS011;72058;47.782;10.618;2024-01-25T11:03:39;2.35;;;1.95;;
82415;SDS011;72058;47.782;10.618;2024-01-25T11:08:40;2.85;;;2.60;;
82415;SDS011;72058;47.782;10.618;2024-01-25T11:11:06;2.92;;;2.22;;
82415;SDS011;72058;47.782;10.618;2024-01-25T11:13:38;3.05;;;2.85;;
82415;SDS011;72058;47.782;10.618;2024-01-25T11:16:13;3.00;;;2.70;;
82415;SDS011;72058;47.782;10.618;2024-01-25T11:18:53;2.53;;;2.05;;
82415;SDS011;72058;47.782;10.618;2024-01-25T11:21:29;2.58;;;2.05;;
82415;SDS011;72058;47.782;10.618;2024-01-25T11:24:05;2.58;;;2.38;;
82415;SDS011;72058;47.782;10.618;2024-01-25T11:26:33;2.45;;;2.25;;
82415;SDS011;72058;47.782;10.618;2024-01-25T11:28:59;2.55;;;2.05;;
82415;SDS011;72058;47.782;10.618;2024-01-25T11:31:27;2.70;;;1.95;;
82415;SDS011;72058;47.782;10.618;2024-01-25T11:33:57;3.83;;;2.15;;
82415;SDS011;72058;47.782;10.618;2024-01-25T11:36:24;3.45;;;2.13;;
82415;SDS011;72058;47.782;10.618;2024-01-25T11:38:50;2.22;;;1.88;;
82415;SDS011;72058;47.782;10.618;2024-01-25T11:41:15;3.33;;;2.67;;
82415;SDS011;72058;47.782;10.618;2024-01-25T11:43:41;2.93;;;2.00;;
82415;SDS011;72058;47.782;10.618;2024-01-25T11:46:06;2.55;;;1.77;;
82415;SDS011;72058;47.782;10.618;2024-01-25T11:48:32;3.50;;;1.70;;
82415;SDS011;72058;47.782;10.618;2024-01-25T11:51:00;1.90;;;1.80;;
82415;SDS011;72058;47.782;10.618;2024-01-25T11:53:27;2.60;;;1.95;;
82415;SDS011;72058;47.782;10.618;2024-01-25T11:55:52;2.63;;;2.43;;
82415;SDS011;72058;47.782;10.618;2024-01-25T11:58:20;2.20;;;1.75;;
82415;SDS011;72058;47.782;10.618;2024-01-25T12:00:46;2.13;;;1.92;;
82415;SDS011;72058;47.782;10.618;2024-01-25T12:03:14;3.97;;;2.53;;
82415;SDS011;72058;47.782;10.618;2024-01-25T12:05:40;3.95;;;3.65;;
82415;SDS011;72058;47.782;10.618;2024-01-25T12:08:09;2.08;;;1.75;;
82415;SDS011;72058;47.782;10.618;2024-01-25T12:10:38;2.95;;;2.33;;
82415;SDS011;72058;47.782;10.618;2024-01-25T12:13:03;2.40;;;2.20;;
82415;SDS011;72058;47.782;10.618;2024-01-25T12:15:32;2.65;;;2.13;;
82415;SDS011;72058;47.782;10.618;2024-01-25T12:17:58;2.42;;;2.22;;
82415;SDS011;72058;47.782;10.618;2024-01-25T12:20:23;3.03;;;1.80;;
82415;SDS011;72058;47.782;10.618;2024-01-25T12:22:49;2.60;;;2.10;;
82415;SDS011;72058;47.782;10.618;2024-01-25T12:25:15;1.85;;;1.75;;
82415;SDS011;72058;47.782;10.618;2024-01-25T12:27:40;2.95;;;1.85;;
82415;SDS011;72058;47.782;10.618;2024-01-25T12:30:06;1.85;;;1.73;;
82415;SDS011;72058;47.782;10.618;2024-01-25T12:32:33;4.05;;;2.10;;
82415;SDS011;72058;47.782;10.618;2024-01-25T12:34:59;2.92;;;1.85;;
82415;SDS011;72058;47.782;10.618;2024-01-25T12:37:25;2.83;;;1.90;;
82415;SDS011;72058;47.782;10.618;2024-01-25T12:39:51;2.10;;;1.90;;
82415;SDS011;72058;47.782;10.618;2024-01-25T12:42:18;2.17;;;2.05;;
82415;SDS011;72058;47.782;10.618;2024-01-25T12:44:44;2.08;;;1.88;;
82415;SDS011;72058;47.782;10.618;2024-01-25T12:49:37;1.85;;;1.75;;
82415;SDS011;72058;47.782;10.618;2024-01-25T12:52:04;4.07;;;1.85;;
82415;SDS011;72058;47.782;10.618;2024-01-25T12:54:29;1.80;;;1.70;;
82415;SDS011;72058;47.782;10.618;2024-01-25T12:56:55;2.75;;;2.20;;
82415;SDS011;72058;47.782;10.618;2024-01-25T12:59:20;2.20;;;1.80;;
82415;SDS011;72058;47.782;10.618;2024-01-25T13:01:45;3.70;;;2.17;;
82415;SDS011;72058;47.782;10.618;2024-01-25T13:04:11;2.90;;;1.92;;
82415;SDS011;72058;47.782;10.618;2024-01-25T13:06:37;1.58;;;1.48;;
82415;SDS011;72058;47.782;10.618;2024-01-25T13:09:02;2.70;;;2.10;;
82415;SDS011;72058;47.782;10.618;2024-01-25T13:11:28;2.35;;;2.05;;
82415;SDS011;72058;47.782;10.618;2024-01-25T13:13:54;1.75;;;1.65;;
82415;SDS011;72058;47.782;10.618;2024-01-25T13:16:20;2.30;;;1.85;;
82415;SDS011;72058;47.782;10.618;2024-01-25T13:18:45;2.73;;;2.13;;
82415;SDS011;72058;47.782;10.618;2024-01-25T13:21:10;2.20;;;2.00;;
82415;SDS011;72058;47.782;10.618;2024-01-25T13:23:36;3.03;;;2.83;;
82415;SDS011;72058;47.782;10.618;2024-01-25T13:26:01;3.97;;;2.20;;
82415;SDS011;72058;47.782;10.618;2024-01-25T13:28:27;3.25;;;3.05;;
82415;SDS011;72058;47.782;10.618;2024-01-25T13:30:52;1.98;;;1.80;;
82415;SDS011;72058;47.782;10.618;2024-01-25T13:33:19;2.38;;;1.92;;
82415;SDS011;72058;47.782;10.618;2024-01-25T13:35:44;1.83;;;1.63;;
82415;SDS011;72058;47.782;10.618;2024-01-25T13:38:09;1.88;;;1.77;;
82415;SDS011;72058;47.782;10.618;2024-01-25T13:40:39;3.40;;;2.03;;
82415;SDS011;72058;47.782;10.618;2024-01-25T13:43:04;1.70;;;1.60;;
82415;SDS011;72058;47.782;10.618;2024-01-25T13:45:30;2.30;;;1.60;;
82415;SDS011;72058;47.782;10.618;2024-01-25T13:47:55;2.27;;;2.07;;
82415;SDS011;72058;47.782;10.618;2024-01-25T13:50:20;2.63;;;2.43;;
82415;SDS011;72058;47.782;10.618;2024-01-25T13:52:46;2.67;;;2.43;;
82415;SDS011;72058;47.782;10.618;2024-01-25T13:55:11;2.50;;;2.30;;
82415;SDS011;72058;47.782;10.618;2024-01-25T13:57:36;2.30;;;2.03;;
82415;SDS011;72058;47.782;10.618;2024-01-25T14:00:02;3.73;;;2.43;;
82415;SDS011;72058;47.782;10.618;2024-01-25T14:02:29;2.97;;;2.05;;
82415;SDS011;72058;47.782;10.618;2024-01-25T14:04:54;2.55;;;2.35;;
82415;SDS011;72058;47.782;10.618;2024-01-25T14:07:20;2.35;;;2.15;;
82415;SDS011;72058;47.782;10.618;2024-01-25T14:09:45;2.13;;;1.92;;
82415;SDS011;72058;47.782;10.618;2024-01-25T14:12:11;2.55;;;2.17;;
82415;SDS011;72058;47.782;10.618;2024-01-25T14:14:37;2.17;;;2.08;;
82415;SDS011;72058;47.782;10.618;2024-01-25T14:17:03;1.80;;;1.70;;
82415;SDS011;72058;47.782;10.618;2024-01-25T14:19:28;2.22;;;2.13;;
82415;SDS011;72058;47.782;10.618;2024-01-25T14:21:54;2.83;;;2.10;;
82415;SDS011;72058;47.782;10.618;2024-01-25T14:24:19;2.72;;;2.33;;
82415;SDS011;72058;47.782;10.618;2024-01-25T14:26:44;2.50;;;2.20;;
82415;SDS011;72058;47.782;10.618;2024-01-25T14:29:11;2.28;;;2.08;;
82415;SDS011;72058;47.782;10.618;2024-01-25T14:31:37;1.83;;;1.73;;
82415;SDS011;72058;47.782;10.618;2024-01-25T14:34:02;2.10;;;1.90;;
82415;SDS011;72058;47.782;10.618;2024-01-25T14:36:28;2.20;;;2.00;;
82415;SDS011;72058;47.782;10.618;2024-01-25T14:38:53;2.13;;;1.87;;
82415;SDS011;72058;47.782;10.618;2024-01-25T14:41:18;2.13;;;1.92;;
82415;SDS011;72058;47.782;10.618;2024-01-25T14:43:44;2.42;;;2.22;;